Algolake — VCPX — position and weather

sailwx.info

Track history (hours):
 
Tides and Currents Weather Stations Pressure Air Temp Water Temp Dewpoint Dewpoint Depression Visibility Wind Speed Wind Dir Waves Ship Positions

Algolake

Last reported at 2017-Nov-20 05:00 UTC. Time now 2017-Nov-20 07:57 UTC.
Position N 43°54' W 076°54'.

Length 223 m; draft 7 m.

Type: Cargo ship. MMSI: 316001795.

Wind from 300 at 32 knots

Barometer 1008.0 mb
Air temperature 1.0 ° C
Visibility: greater than 10.8 NM
Dewpoint -1.0 ° C

Date/timePositionNaut miles runAvg speedWind from/ knotsBaromVisibWave heightAir tempDewpointWater temp
2017-Nov-20 05:00N 43°54' W 076°54'0 0.0 300 / 321008.010.8 1.0-1.0
2017-Nov-19 17:00N 43°54' W 076°54'0 0.0 310 / 201000.010.8 3.0 1.0
2017-Nov-19 05:00N 43°54' W 076°54'136 6.3 170 / 30985.0 2.2 9.0 7.0
2017-Nov-18 07:21N 45°12' W 074°18'6 9.6
2017-Nov-18 06:47N 45°14' W 074°11'2 8.4
2017-Nov-18 06:29N 45°14' W 074°07'1 0.4
2017-Nov-18 03:04N 45°13' W 074°05'0 0.5
2017-Nov-18 03:00N 45°13' W 074°05'1 2.6
2017-Nov-18 02:31N 45°13' W 074°04'5 6.9
2017-Nov-18 01:48N 45°16' W 073°58'2 7.8
2017-Nov-18 01:30N 45°18' W 073°56'1 1.5
2017-Nov-18 01:01N 45°18' W 073°56'1 1.2
2017-Nov-18 00:31N 45°19' W 073°55'0 0.3
2017-Nov-18 00:00N 45°19' W 073°55'1 2.3
2017-Nov-17 23:30N 45°20' W 073°54'0 0.9
2017-Nov-17 23:00N 45°20' W 073°54'0 0.1
2017-Nov-17 22:30N 45°20' W 073°54'0 0.0
2017-Nov-17 22:00N 45°20' W 073°54'2 3.5
2017-Nov-17 21:30N 45°21' W 073°52'5 9.1
2017-Nov-17 21:00N 45°24' W 073°47'4 7.7
2017-Nov-17 20:30N 45°25' W 073°41'3 5.9
2017-Nov-17 20:00N 45°24' W 073°37'3 5.1
2017-Nov-17 19:30N 45°24' W 073°34'1 2.0
2017-Nov-17 18:57N 45°24' W 073°32'3 5.7
2017-Nov-17 18:30N 45°26' W 073°30'3 6.2
2017-Nov-17 18:01N 45°29' W 073°31'0 0.5
2017-Nov-17 17:26N 45°30' W 073°31'1 1.6
2017-Nov-17 16:41N 45°31' W 073°31'1 0.0
2017-Nov-16 02:42N 45°32' W 073°32'2 5.4
2017-Nov-16 02:21N 45°30' W 073°31'1 0.8
2017-Nov-16 01:42N 45°30' W 073°31'0 1.2
2017-Nov-16 01:26N 45°29' W 073°31'2 3.6
2017-Nov-16 01:00N 45°28' W 073°30'3 5.6
2017-Nov-16 00:30N 45°25' W 073°31'2 4.6
2017-Nov-16 00:00N 45°24' W 073°34'0 0.3
2017-Nov-15 23:31N 45°24' W 073°34'1 1.3
2017-Nov-15 23:01N 45°24' W 073°35'1 1.9
2017-Nov-15 22:27N 45°24' W 073°37'2 3.8
2017-Nov-15 22:00N 45°24' W 073°39'2 4.4
2017-Nov-15 21:30N 45°25' W 073°42'4 7.5
2017-Nov-15 21:01N 45°24' W 073°47'510.7
2017-Nov-15 20:31N 45°21' W 073°53'2 4.4
2017-Nov-15 20:01N 45°19' W 073°55'0 0.3
2017-Nov-15 19:31N 45°19' W 073°55'1 1.3
2017-Nov-15 19:01N 45°18' W 073°56'0 0.6
2017-Nov-15 18:30N 45°18' W 073°56'2 4.5
2017-Nov-15 18:00N 45°16' W 073°57'5 8.9
2017-Nov-15 17:29N 45°13' W 074°03'4 9.2
2017-Nov-15 17:00N 45°14' W 074°09'610.2
2017-Nov-15 16:28N 45°13' W 074°17'314 6.6
2017-Nov-13 17:00N 42°18' W 080°18'118 9.9 360 / 101028.010.8 6.0 4.0
2017-Nov-13 05:00N 41°54' W 082°54'82 7.5 010 / 101026.010.8 6.0 4.0
2017-Nov-12 18:00N 43°12' W 082°18'60 1.2 744.210.8 6.0 4.0
2017-Nov-10 17:00N 42°18' W 081°42'82 6.8 350 / 201033.010.8 -4.0-8.0
2017-Nov-10 05:00N 42°36' W 079°54'   320 / 471020.010.8 -0.0-0.0
Track history (hours):
 
Tides and Currents Weather Stations Pressure Air Temp Water Temp Dewpoint Dewpoint Depression Visibility Wind Speed Wind Dir Waves Ship Positions

Algolake

Last reported at 2017-Nov-20 05:00 UTC. Time now 2017-Nov-20 07:57 UTC.
Position N 43°54' W 076°54'.

Length 223 m; draft 7 m.

Type: Cargo ship. MMSI: 316001795.

Wind from 300 at 32 knots

Barometer 1008.0 mb
Air temperature 1.0 ° C
Visibility: greater than 10.8 NM
Dewpoint -1.0 ° C

Date/timePositionNaut miles runAvg speedWind from/ knotsBaromVisibWave heightAir tempDewpointWater temp
2017-Nov-20 05:00N 43°54' W 076°54'0 0.0 300 / 321008.010.8 1.0-1.0
2017-Nov-19 17:00N 43°54' W 076°54'0 0.0 310 / 201000.010.8 3.0 1.0
2017-Nov-19 05:00N 43°54' W 076°54'136 6.3 170 / 30985.0 2.2 9.0 7.0
2017-Nov-18 07:21N 45°12' W 074°18'6 9.6
2017-Nov-18 06:47N 45°14' W 074°11'2 8.4
2017-Nov-18 06:29N 45°14' W 074°07'1 0.4
2017-Nov-18 03:04N 45°13' W 074°05'0 0.5
2017-Nov-18 03:00N 45°13' W 074°05'1 2.6
2017-Nov-18 02:31N 45°13' W 074°04'5 6.9
2017-Nov-18 01:48N 45°16' W 073°58'2 7.8
2017-Nov-18 01:30N 45°18' W 073°56'1 1.5
2017-Nov-18 01:01N 45°18' W 073°56'1 1.2
2017-Nov-18 00:31N 45°19' W 073°55'0 0.3
2017-Nov-18 00:00N 45°19' W 073°55'1 2.3
2017-Nov-17 23:30N 45°20' W 073°54'0 0.9
2017-Nov-17 23:00N 45°20' W 073°54'0 0.1
2017-Nov-17 22:30N 45°20' W 073°54'0 0.0
2017-Nov-17 22:00N 45°20' W 073°54'2 3.5
2017-Nov-17 21:30N 45°21' W 073°52'5 9.1
2017-Nov-17 21:00N 45°24' W 073°47'4 7.7
2017-Nov-17 20:30N 45°25' W 073°41'3 5.9
2017-Nov-17 20:00N 45°24' W 073°37'3 5.1
2017-Nov-17 19:30N 45°24' W 073°34'1 2.0
2017-Nov-17 18:57N 45°24' W 073°32'3 5.7
2017-Nov-17 18:30N 45°26' W 073°30'3 6.2
2017-Nov-17 18:01N 45°29' W 073°31'0 0.5
2017-Nov-17 17:26N 45°30' W 073°31'1 1.6
2017-Nov-17 16:41N 45°31' W 073°31'1 0.0
2017-Nov-16 02:42N 45°32' W 073°32'2 5.4
2017-Nov-16 02:21N 45°30' W 073°31'1 0.8
2017-Nov-16 01:42N 45°30' W 073°31'0 1.2
2017-Nov-16 01:26N 45°29' W 073°31'2 3.6
2017-Nov-16 01:00N 45°28' W 073°30'3 5.6
2017-Nov-16 00:30N 45°25' W 073°31'2 4.6
2017-Nov-16 00:00N 45°24' W 073°34'0 0.3
2017-Nov-15 23:31N 45°24' W 073°34'1 1.3
2017-Nov-15 23:01N 45°24' W 073°35'1 1.9
2017-Nov-15 22:27N 45°24' W 073°37'2 3.8
2017-Nov-15 22:00N 45°24' W 073°39'2 4.4
2017-Nov-15 21:30N 45°25' W 073°42'4 7.5
2017-Nov-15 21:01N 45°24' W 073°47'510.7
2017-Nov-15 20:31N 45°21' W 073°53'2 4.4
2017-Nov-15 20:01N 45°19' W 073°55'0 0.3
2017-Nov-15 19:31N 45°19' W 073°55'1 1.3
2017-Nov-15 19:01N 45°18' W 073°56'0 0.6
2017-Nov-15 18:30N 45°18' W 073°56'2 4.5
2017-Nov-15 18:00N 45°16' W 073°57'5 8.9
2017-Nov-15 17:29N 45°13' W 074°03'4 9.2
2017-Nov-15 17:00N 45°14' W 074°09'610.2
2017-Nov-15 16:28N 45°13' W 074°17'314 6.6
2017-Nov-13 17:00N 42°18' W 080°18'118 9.9 360 / 101028.010.8 6.0 4.0
2017-Nov-13 05:00N 41°54' W 082°54'82 7.5 010 / 101026.010.8 6.0 4.0
2017-Nov-12 18:00N 43°12' W 082°18'60 1.2 744.210.8 6.0 4.0
2017-Nov-10 17:00N 42°18' W 081°42'82 6.8 350 / 201033.010.8 -4.0-8.0
2017-Nov-10 05:00N 42°36' W 079°54'   320 / 471020.010.8 -0.0-0.0

Dump ship's entire track history